Time;durP1;ratioP1;P1;durP2;ratioP2;P2;SDS_P1;SDS_P2;PMS_P1;PMS_P2;Temp;Humidity;BMP_temperature;BMP_pressure;BME280_temperature;BME280_humidity;BME280_pressure;Samples;Min_cycle;Max_cycle;Signal;HPM_P1;HPM_P2
2024/01/12 00:00:33;;;;;;;18.43;7.80;;;;;;;-0.55;100.00;103308.50;4955161;28;20027;-90
2024/01/12 00:02:58;;;;;;;20.17;7.87;;;;;;;-0.54;100.00;103325.59;4954512;29;20294;-92
2024/01/12 00:06:45;;;;;;;19.43;8.00;;;;;;;-0.55;100.00;103318.72;4956401;29;20113;-93
2024/01/12 00:08:38;;;;;;;20.77;8.00;;;;;;;-0.55;100.00;103316.16;4942179;29;20036;-90
2024/01/12 00:11:08;;;;;;;19.50;7.47;;;;;;;-0.52;100.00;103326.56;4955505;28;20038;-92
2024/01/12 00:13:33;;;;;;;18.27;7.50;;;;;;;-0.51;100.00;103330.88;4954668;29;20036;-91
2024/01/12 00:16:03;;;;;;;18.90;7.77;;;;;;;-0.52;100.00;103326.56;4954534;29;20448;-92
2024/01/12 00:18:29;;;;;;;16.13;7.00;;;;;;;-0.52;100.00;103318.91;4954785;29;20452;-90
2024/01/12 00:20:54;;;;;;;18.03;7.00;;;;;;;-0.55;100.00;103318.72;4954589;28;20106;-91
2024/01/12 00:23:19;;;;;;;20.67;8.30;;;;;;;-0.57;100.00;103322.84;4938960;29;20126;-91
2024/01/12 00:25:45;;;;;;;18.83;7.23;;;;;;;-0.60;100.00;103322.66;4954370;29;20033;-91
2024/01/12 00:28:10;;;;;;;19.40;8.10;;;;;;;-0.57;100.00;103319.38;4954531;29;20062;-92
2024/01/12 00:30:35;;;;;;;19.87;7.83;;;;;;;-0.57;100.00;103315.19;4954055;28;20027;-91
2024/01/12 00:33:01;;;;;;;17.90;7.70;;;;;;;-0.56;100.00;103316.03;4954548;29;20027;-90
2024/01/12 00:35:28;;;;;;;21.40;8.57;;;;;;;-0.56;100.00;103319.50;4954139;29;20110;-92
2024/01/12 00:37:53;;;;;;;19.20;6.93;;;;;;;-0.56;100.00;103327.16;4953787;29;20020;-93
2024/01/12 00:40:19;;;;;;;17.77;7.57;;;;;;;-0.58;100.00;103318.53;4952738;28;20053;-92
2024/01/12 00:42:44;;;;;;;17.30;7.83;;;;;;;-0.57;100.00;103325.41;4953443;29;20377;-92
2024/01/12 00:45:10;;;;;;;19.57;7.90;;;;;;;-0.57;100.00;103320.28;4954431;29;20030;-91
2024/01/12 00:47:35;;;;;;;21.60;7.93;;;;;;;-0.58;100.00;103321.09;4967519;28;20366;-91
2024/01/12 00:50:00;;;;;;;19.80;7.97;;;;;;;-0.58;100.00;103318.53;4953993;29;20027;-92
2024/01/12 00:52:26;;;;;;;17.10;7.30;;;;;;;-0.56;100.00;103318.59;4954199;28;20089;-90
2024/01/12 00:54:51;;;;;;;17.30;7.57;;;;;;;-0.55;100.00;103313.59;4973970;28;20484;-92
2024/01/12 00:57:16;;;;;;;21.30;8.13;;;;;;;-0.56;100.00;103316.94;4953040;29;20485;-90
2024/01/12 00:59:42;;;;;;;20.23;7.83;;;;;;;-0.57;100.00;103317.72;4952772;29;20030;-91
2024/01/12 01:02:07;;;;;;;18.20;7.30;;;;;;;-0.55;100.00;103321.28;4952447;28;20034;-90
2024/01/12 01:04:32;;;;;;;18.03;7.67;;;;;;;-0.54;100.00;103317.03;4936645;29;20023;-92
2024/01/12 01:06:58;;;;;;;17.70;7.50;;;;;;;-0.54;100.00;103325.59;4952293;29;20665;-90
2024/01/12 01:09:23;;;;;;;20.50;7.87;;;;;;;-0.55;100.00;103325.47;4952437;29;20275;-91
2024/01/12 01:11:52;;;;;;;17.57;7.67;;;;;;;-0.56;100.00;103332.28;4951804;28;20036;-91
2024/01/12 01:14:17;;;;;;;19.87;8.00;;;;;;;-0.57;100.00;103335.63;4952629;29;20019;-90
2024/01/12 01:16:43;;;;;;;21.00;8.23;;;;;;;-0.58;100.00;103335.53;4968360;28;20033;-89
2024/01/12 01:19:08;;;;;;;17.83;7.83;;;;;;;-0.58;100.00;103328.75;4937756;29;20046;-92
2024/01/12 01:21:34;;;;;;;19.70;7.90;;;;;;;-0.56;100.00;103337.41;4952735;28;20061;-90
2024/01/12 01:23:59;;;;;;;19.00;7.67;;;;;;;-0.55;100.00;103335.72;4952975;29;20068;-89
2024/01/12 01:26:24;;;;;;;19.87;8.30;;;;;;;-0.56;100.00;103337.41;4952504;29;20038;-91
2024/01/12 01:28:50;;;;;;;18.93;7.93;;;;;;;-0.57;100.00;103340.75;4952435;29;20062;-91
2024/01/12 01:31:15;;;;;;;17.10;7.90;;;;;;;-0.58;100.00;103354.31;4953294;28;20058;-91
2024/01/12 01:33:40;;;;;;;16.93;6.97;;;;;;;-0.58;100.00;103367.09;4953145;29;20027;-92
2024/01/12 01:36:06;;;;;;;18.13;8.57;;;;;;;-0.60;100.00;103370.38;4952716;29;20056;-93
2024/01/12 01:38:31;;;;;;;19.10;7.50;;;;;;;-0.63;100.00;103365.94;4938010;29;20027;-91
2024/01/12 01:40:57;;;;;;;17.03;7.60;;;;;;;-0.63;100.00;103365.94;4969896;28;20102;-92
2024/01/12 01:43:22;;;;;;;16.97;7.40;;;;;;;-0.65;100.00;103368.41;4952734;29;20508;-92
2024/01/12 01:45:47;;;;;;;18.77;7.70;;;;;;;-0.65;100.00;103363.28;4952675;29;20388;-91
2024/01/12 01:48:14;;;;;;;16.33;7.60;;;;;;;-0.63;100.00;103369.38;4952678;29;20476;-91
2024/01/12 01:50:39;;;;;;;19.97;7.93;;;;;;;-0.63;100.00;103364.28;4952982;28;20023;-90
2024/01/12 01:53:05;;;;;;;18.27;7.67;;;;;;;-0.63;100.00;103356.59;4951849;29;20027;-91
2024/01/12 01:55:31;;;;;;;17.63;7.53;;;;;;;-0.61;100.00;103351.56;4969501;28;20026;-93
2024/01/12 01:57:58;;;;;;;17.17;7.77;;;;;;;-0.58;100.00;103354.31;4952283;29;20088;-93
2024/01/12 02:00:23;;;;;;;16.70;7.20;;;;;;;-0.56;100.00;103345.06;4952975;28;20031;-92
2024/01/12 02:02:49;;;;;;;17.23;7.13;;;;;;;-0.55;100.00;103357.06;4951749;29;20027;-92
2024/01/12 02:05:14;;;;;;;17.83;8.00;;;;;;;-0.54;100.00;103356.28;4952546;29;20086;-90
2024/01/12 02:07:42;;;;;;;18.10;8.20;;;;;;;-0.54;100.00;103345.16;4952949;29;20025;-91
2024/01/12 02:10:09;;;;;;;17.20;7.60;;;;;;;-0.54;100.00;103346.06;4952801;28;20023;-92
2024/01/12 02:12:35;;;;;;;19.07;7.97;;;;;;;-0.56;100.00;103342.50;4951882;29;20058;-91
2024/01/12 02:15:01;;;;;;;16.20;7.70;;;;;;;-0.56;100.00;103337.41;4953016;29;20019;-92
2024/01/12 02:17:27;;;;;;;19.63;8.10;;;;;;;-0.57;100.00;103334.72;4937276;29;20094;-92
2024/01/12 02:20:12;;;;;;;20.13;7.73;;;;;;;-0.58;100.00;103338.97;4953003;29;20504;-93
2024/01/12 02:22:38;;;;;;;21.80;8.27;;;;;;;-0.61;100.00;103338.78;4952203;29;20073;-93
2024/01/12 02:25:04;;;;;;;18.07;7.63;;;;;;;-0.60;100.00;103332.00;4938095;29;20027;-92
2024/01/12 02:27:29;;;;;;;18.60;7.57;;;;;;;-0.60;100.00;103339.69;4954618;28;20030;-91
2024/01/12 02:29:57;;;;;;;17.23;7.13;;;;;;;-0.62;100.00;103343.03;4952715;29;20028;-91
2024/01/12 02:32:22;;;;;;;17.33;7.30;;;;;;;-0.62;100.00;103343.03;4936488;29;20665;-90
2024/01/12 02:34:48;;;;;;;17.33;7.27;;;;;;;-0.59;100.00;103336.31;4952800;29;20090;-91
2024/01/12 02:37:13;;;;;;;16.40;7.00;;;;;;;-0.59;100.00;103341.41;4952134;29;20111;-91
2024/01/12 02:39:39;;;;;;;20.13;7.67;;;;;;;-0.59;100.00;103337.22;4946365;29;20143;-91
2024/01/12 02:42:04;;;;;;;20.37;8.30;;;;;;;-0.57;100.00;103337.28;4935039;29;20035;-92
2024/01/12 02:44:30;;;;;;;18.47;8.03;;;;;;;-0.55;100.00;103341.72;4934836;29;20023;-92
2024/01/12 02:46:55;;;;;;;17.97;8.07;;;;;;;-0.54;100.00;103335.81;4935559;29;20030;-91
2024/01/12 02:49:20;;;;;;;18.83;6.93;;;;;;;-0.53;100.00;103332.47;4920336;29;20451;-92
2024/01/12 02:51:46;;;;;;;17.93;7.47;;;;;;;-0.52;100.00;103324.03;4933718;29;20532;-92
2024/01/12 02:54:11;;;;;;;17.10;7.27;;;;;;;-0.51;100.00;103330.00;4933816;29;20023;-91
2024/01/12 02:56:37;;;;;;;20.77;8.00;;;;;;;-0.51;100.00;103319.78;4935048;29;20031;-91
2024/01/12 02:59:02;;;;;;;17.80;7.33;;;;;;;-0.50;100.00;103327.53;4934723;29;20027;-91
2024/01/12 03:01:27;;;;;;;18.00;8.03;;;;;;;-0.52;100.00;103326.56;4921337;29;20054;-91
2024/01/12 03:03:53;;;;;;;18.07;7.43;;;;;;;-0.52;100.00;103331.69;4936928;29;20098;-92
2024/01/12 03:06:19;;;;;;;20.00;7.80;;;;;;;-0.50;100.00;103326.66;4937220;29;20034;-91
2024/01/12 03:08:44;;;;;;;18.23;7.80;;;;;;;-0.50;100.00;103332.63;4938457;29;20046;-90
2024/01/12 03:11:09;;;;;;;18.63;7.87;;;;;;;-0.52;100.00;103329.13;4937723;29;20506;-88
2024/01/12 03:13:35;;;;;;;18.87;8.27;;;;;;;-0.53;100.00;103326.47;4936712;29;20055;-90
2024/01/12 03:16:00;;;;;;;20.00;8.33;;;;;;;-0.54;100.00;103317.94;4938031;29;20027;-89
2024/01/12 03:18:27;;;;;;;19.83;8.70;;;;;;;-0.58;100.00;103318.53;4937554;29;20491;-90
2024/01/12 03:20:52;;;;;;;19.73;7.90;;;;;;;-0.57;100.00;103315.19;4937484;29;20131;-90
2024/01/12 03:23:18;;;;;;;19.87;8.50;;;;;;;-0.59;100.00;103311.63;4921357;29;20110;-91
2024/01/12 03:25:43;;;;;;;20.43;8.60;;;;;;;-0.58;100.00;103312.50;4937252;29;20058;-91
2024/01/12 03:28:08;;;;;;;19.90;8.37;;;;;;;-0.58;100.00;103315.06;4937238;29;20077;-90
2024/01/12 03:30:34;;;;;;;19.67;8.20;;;;;;;-0.58;100.00;103310.84;4955142;28;20041;-90
2024/01/12 03:33:00;;;;;;;17.47;8.10;;;;;;;-0.57;100.00;103310.06;4921977;29;20115;-91
2024/01/12 03:35:25;;;;;;;18.60;7.80;;;;;;;-0.58;100.00;103313.41;4922493;29;20027;-90
2024/01/12 03:37:51;;;;;;;20.07;8.30;;;;;;;-0.58;100.00;103303.19;4923634;29;20464;-91
2024/01/12 03:40:16;;;;;;;19.57;7.77;;;;;;;-0.56;100.00;103306.72;4921240;29;20051;-91
2024/01/12 03:42:41;;;;;;;16.50;7.67;;;;;;;-0.54;100.00;103307.69;4919542;29;20043;-92
2024/01/12 03:45:07;;;;;;;20.60;8.27;;;;;;;-0.52;100.00;103303.56;4936653;29;20023;-92
2024/01/12 03:47:33;;;;;;;19.17;8.40;;;;;;;-0.54;100.00;103305.13;4937045;29;20058;-91
2024/01/12 03:49:58;;;;;;;18.47;8.43;;;;;;;-0.54;100.00;103299.13;4936169;29;20052;-92
2024/01/12 03:52:24;;;;;;;18.53;7.90;;;;;;;-0.53;100.00;103296.69;4935935;29;20063;-91
2024/01/12 03:54:49;;;;;;;16.53;7.20;;;;;;;-0.50;100.00;103301.94;4935982;29;20027;-91
2024/01/12 03:57:15;;;;;;;20.63;8.67;;;;;;;-0.48;100.00;103294.38;4935598;29;20606;-91
2024/01/12 03:59:41;;;;;;;20.43;8.57;;;;;;;-0.47;100.00;103301.28;4935611;29;20032;-89
2024/01/12 04:02:06;;;;;;;20.13;8.70;;;;;;;-0.47;100.00;103299.59;4919714;29;20434;-90
2024/01/12 04:04:32;;;;;;;21.93;8.43;;;;;;;-0.44;100.00;103296.34;4935362;29;20028;-91
2024/01/12 04:06:57;;;;;;;21.63;8.90;;;;;;;-0.42;100.00;103287.06;4935340;29;20028;-91
2024/01/12 04:09:22;;;;;;;21.77;8.30;;;;;;;-0.42;100.00;103293.88;4934883;29;20035;-90
2024/01/12 04:11:48;;;;;;;22.00;9.10;;;;;;;-0.44;100.00;103290.34;4935595;29;20031;-90
2024/01/12 04:14:13;;;;;;;23.17;8.97;;;;;;;-0.43;100.00;103294.66;4951197;28;20123;-91
2024/01/12 04:16:38;;;;;;;19.23;8.27;;;;;;;-0.40;100.00;103294.84;4934936;29;20393;-90
2024/01/12 04:19:04;;;;;;;19.90;8.57;;;;;;;-0.42;100.00;103292.19;4934255;29;20094;-92
2024/01/12 04:21:29;;;;;;;19.33;8.53;;;;;;;-0.43;100.00;103284.44;4918794;29;20031;-89
2024/01/12 04:23:55;;;;;;;21.27;8.93;;;;;;;-0.44;100.00;103290.34;4934393;29;20027;-91
2024/01/12 04:26:20;;;;;;;22.33;9.27;;;;;;;-0.46;100.00;103298.78;4919122;29;20389;-92
2024/01/12 04:28:45;;;;;;;19.60;8.30;;;;;;;-0.46;100.00;103300.47;4933993;29;20031;-89
2024/01/12 04:31:11;;;;;;;20.33;8.07;;;;;;;-0.49;100.00;103303.72;4952414;28;20538;-90
2024/01/12 04:33:37;;;;;;;21.70;8.60;;;;;;;-0.50;100.00;103298.53;4942473;29;20043;-91
2024/01/12 04:36:05;;;;;;;20.80;8.50;;;;;;;-0.51;100.00;103309.53;4917309;29;20494;-88
2024/01/12 04:38:30;;;;;;;21.33;9.30;;;;;;;-0.52;100.00;103308.69;4920818;29;20027;-91
2024/01/12 04:40:56;;;;;;;19.10;8.60;;;;;;;-0.52;100.00;103301.00;4936195;29;20528;-90
2024/01/12 04:43:21;;;;;;;21.67;8.87;;;;;;;-0.50;100.00;103306.19;4936347;29;20055;-90
2024/01/12 04:45:46;;;;;;;20.97;8.77;;;;;;;-0.51;100.00;103302.75;4920402;29;20027;-89
2024/01/12 04:48:11;;;;;;;20.27;8.10;;;;;;;-0.49;100.00;103303.72;4921673;29;20346;-89
2024/01/12 04:50:37;;;;;;;21.70;8.77;;;;;;;-0.49;100.00;103295.19;4920266;29;20381;-91
2024/01/12 04:53:02;;;;;;;22.13;9.30;;;;;;;-0.49;100.00;103296.03;4919784;29;20094;-89
2024/01/12 04:55:28;;;;;;;21.13;8.70;;;;;;;-0.47;100.00;103302.13;4935387;29;20254;-90
2024/01/12 04:57:53;;;;;;;19.47;8.17;;;;;;;-0.45;100.00;103302.25;4918839;29;20019;-90
2024/01/12 05:00:19;;;;;;;21.57;9.20;;;;;;;-0.44;100.00;103305.69;4952451;28;20398;-89
2024/01/12 05:02:44;;;;;;;23.90;9.10;;;;;;;-0.44;100.00;103300.56;4919680;29;20024;-89
2024/01/12 05:05:10;;;;;;;22.17;8.73;;;;;;;-0.42;100.00;103289.63;4935817;29;20671;-90
2024/01/12 05:07:35;;;;;;;20.90;8.80;;;;;;;-0.39;100.00;103288.94;4934150;29;20024;-89
2024/01/12 05:10:03;;;;;;;22.40;9.17;;;;;;;-0.37;100.00;103282.25;4934316;29;20154;-89
2024/01/12 05:12:28;;;;;;;22.67;8.33;;;;;;;-0.35;100.00;103273.00;4920783;29;20019;-89
2024/01/12 05:14:54;;;;;;;19.30;9.13;;;;;;;-0.34;100.00;103278.19;4934251;29;20038;-91
2024/01/12 05:17:19;;;;;;;19.23;9.20;;;;;;;-0.32;100.00;103280.81;4953739;28;20027;-89
2024/01/12 05:19:44;;;;;;;22.20;9.47;;;;;;;-0.31;100.00;103277.47;4955409;28;20071;-88
2024/01/12 05:22:10;;;;;;;19.37;8.90;;;;;;;-0.32;100.00;103270.59;4935473;28;20034;-89
2024/01/12 05:24:35;;;;;;;21.97;8.47;;;;;;;-0.34;100.00;103270.50;4952456;28;20165;-90
2024/01/12 05:27:00;;;;;;;22.10;9.07;;;;;;;-0.33;100.00;103268.81;4937254;28;20023;-88
2024/01/12 05:29:26;;;;;;;21.13;9.20;;;;;;;-0.34;100.00;103279.84;4934977;29;20020;-89
2024/01/12 05:31:51;;;;;;;18.97;8.67;;;;;;;-0.34;100.00;103272.16;4918263;29;20031;-89
2024/01/12 05:34:17;;;;;;;19.90;9.20;;;;;;;-0.34;100.00;103264.50;4933604;29;20536;-90
2024/01/12 05:36:42;;;;;;;18.30;8.37;;;;;;;-0.32;100.00;103275.69;4933437;29;20081;-88
2024/01/12 05:39:08;;;;;;;21.37;9.50;;;;;;;-0.34;100.00;103278.19;4936840;28;20031;-88
2024/01/12 05:41:33;;;;;;;21.43;8.57;;;;;;;-0.34;100.00;103287.50;4951620;28;20019;-89
2024/01/12 05:43:58;;;;;;;21.13;8.60;;;;;;;-0.37;100.00;103292.47;4951606;29;20063;-89
2024/01/12 05:46:24;;;;;;;21.13;9.07;;;;;;;-0.38;100.00;103290.72;4951248;29;20027;-88
2024/01/12 05:48:49;;;;;;;21.37;9.40;;;;;;;-0.38;100.00;103288.16;4950376;29;20582;-89
2024/01/12 05:51:17;;;;;;;20.23;8.60;;;;;;;-0.37;100.00;103287.38;4950938;28;20066;-89
2024/01/12 05:53:44;;;;;;;19.87;8.63;;;;;;;-0.37;100.00;103284.81;4967089;28;20077;-89
2024/01/12 05:56:09;;;;;;;22.43;9.10;;;;;;;-0.36;100.00;103286.56;4951400;29;20027;-89
2024/01/12 05:58:35;;;;;;;21.83;8.57;;;;;;;-0.37;100.00;103297.59;4935804;29;20023;-88
2024/01/12 06:01:00;;;;;;;20.60;9.07;;;;;;;-0.37;100.00;103302.72;4950615;28;20510;-88
2024/01/12 06:03:28;;;;;;;19.40;8.23;;;;;;;-0.36;100.00;103295.09;4935700;29;20441;-88
2024/01/12 06:05:57;;;;;;;21.00;9.13;;;;;;;-0.35;100.00;103293.44;4951281;29;20046;-89
2024/01/12 06:08:22;;;;;;;22.30;8.73;;;;;;;-0.33;100.00;103294.41;4950947;29;20028;-90
2024/01/12 06:10:48;;;;;;;18.73;8.07;;;;;;;-0.33;100.00;103300.41;4935146;29;20029;-88
2024/01/12 06:13:14;;;;;;;22.13;8.97;;;;;;;-0.33;100.00;103296.97;4936963;29;20030;-89
2024/01/12 06:15:39;;;;;;;23.33;9.13;;;;;;;-0.34;100.00;103302.88;4951048;29;20031;-88
2024/01/12 06:18:05;;;;;;;20.30;8.47;;;;;;;-0.35;100.00;103306.25;4935392;29;20031;-89
2024/01/12 06:20:30;;;;;;;22.93;9.00;;;;;;;-0.35;100.00;103308.81;4950720;28;20050;-89
2024/01/12 06:22:56;;;;;;;20.67;8.50;;;;;;;-0.34;100.00;103307.97;4934115;29;20028;-89
2024/01/12 06:25:21;;;;;;;26.20;9.67;;;;;;;-0.35;100.00;103316.47;4950797;29;20019;-89
2024/01/12 06:27:47;;;;;;;19.40;8.30;;;;;;;-0.34;100.00;103314.00;4951015;29;20023;-89
2024/01/12 06:30:13;;;;;;;18.93;8.67;;;;;;;-0.34;100.00;103323.31;4934129;28;20023;-89
2024/01/12 06:32:38;;;;;;;20.33;8.50;;;;;;;-0.34;100.00;103316.56;4934883;29;20050;-88
2024/01/12 06:35:07;;;;;;;22.17;8.97;;;;;;;-0.33;100.00;103304.63;4935071;29;20148;-89
2024/01/12 06:37:32;;;;;;;21.20;8.87;;;;;;;-0.30;100.00;103309.94;4950885;28;20108;-89
2024/01/12 06:39:58;;;;;;;19.00;8.27;;;;;;;-0.29;100.00;103315.94;4956753;28;20050;-88
2024/01/12 06:42:24;;;;;;;17.73;7.93;;;;;;;-0.29;100.00;103318.50;4957270;28;20019;-89
2024/01/12 06:44:49;;;;;;;19.17;8.33;;;;;;;-0.27;100.00;103319.47;4957783;28;20049;-88
2024/01/12 06:47:14;;;;;;;22.17;8.07;;;;;;;-0.25;100.00;103323.00;4955759;28;20586;-89
2024/01/12 06:49:44;;;;;;;18.77;8.20;;;;;;;-0.24;100.00;103320.53;4971644;28;20039;-89
2024/01/12 06:52:10;;;;;;;19.53;8.10;;;;;;;-0.22;100.00;103318.06;4944066;28;20435;-89
2024/01/12 06:54:35;;;;;;;20.07;8.17;;;;;;;-0.21;100.00;103318.16;4956661;28;20027;-88
2024/01/12 06:57:00;;;;;;;17.30;7.37;;;;;;;-0.19;100.00;103313.13;4958872;28;20029;-90
2024/01/12 06:59:26;;;;;;;18.47;8.10;;;;;;;-0.18;100.00;103310.69;4955746;28;20511;-88
2024/01/12 07:01:51;;;;;;;22.43;8.30;;;;;;;-0.16;100.00;103314.19;4956376;28;20027;-88
2024/01/12 07:04:16;;;;;;;17.53;7.50;;;;;;;-0.14;100.00;103308.28;4957704;28;20530;-89
2024/01/12 07:06:42;;;;;;;17.80;7.70;;;;;;;-0.11;100.00;103303.34;4956751;28;20413;-89
2024/01/12 07:09:11;;;;;;;19.67;7.53;;;;;;;-0.10;100.00;103307.66;4957078;28;21595;-89
2024/01/12 07:11:41;;;;;;;16.93;7.47;;;;;;;-0.08;100.00;103309.50;4968970;28;20023;-89
2024/01/12 07:14:06;;;;;;;19.57;8.43;;;;;;;-0.07;100.00;103302.72;4939100;28;20380;-90
2024/01/12 07:16:31;;;;;;;17.10;7.47;;;;;;;-0.06;100.00;103301.94;4957119;28;20111;-88
2024/01/12 07:18:57;;;;;;;17.83;8.33;;;;;;;-0.05;100.00;103301.16;4955935;28;20547;-88
2024/01/12 07:21:22;;;;;;;17.33;7.20;;;;;;;-0.01;100.00;103297.97;4954903;28;20045;-89
2024/01/12 07:23:47;;;;;;;17.03;7.13;;;;;;;0.00;100.00;103294.63;4957687;28;20560;-88
2024/01/12 07:26:12;;;;;;;17.03;8.03;;;;;;;0.02;100.00;103293.03;4968718;28;20023;-88
2024/01/12 07:28:38;;;;;;;17.83;7.30;;;;;;;0.05;100.00;103300.00;4957110;28;20035;-87
2024/01/12 07:31:03;;;;;;;20.83;7.93;;;;;;;0.04;100.00;103295.69;4955377;28;20119;-87
2024/01/12 07:33:29;;;;;;;18.40;7.43;;;;;;;0.06;100.00;103294.97;4958489;28;20416;-87
2024/01/12 07:35:54;;;;;;;18.33;7.57;;;;;;;0.05;100.00;103303.44;4970023;28;20570;-88
2024/01/12 07:38:19;;;;;;;16.20;7.10;;;;;;;0.06;100.00;103300.09;4938977;28;20110;-88
2024/01/12 07:40:45;;;;;;;15.67;7.23;;;;;;;0.04;100.00;103306.78;4955727;28;20047;-88
2024/01/12 07:43:10;;;;;;;16.37;6.93;;;;;;;0.05;100.00;103297.44;4936756;29;20527;-86
2024/01/12 07:45:36;;;;;;;19.17;7.70;;;;;;;0.08;100.00;103297.63;4958151;28;20023;-87
2024/01/12 07:48:01;;;;;;;16.37;6.93;;;;;;;0.08;100.00;103288.25;4954306;28;20042;-87
2024/01/12 07:50:26;;;;;;;16.03;7.00;;;;;;;0.10;100.00;103296.91;4955853;28;20019;-88
2024/01/12 07:52:51;;;;;;;21.13;7.57;;;;;;;0.13;100.00;103298.75;4956060;28;20106;-87
2024/01/12 07:55:17;;;;;;;16.63;6.97;;;;;;;0.13;100.00;103291.97;4938354;28;20023;-88
2024/01/12 07:57:42;;;;;;;17.27;7.23;;;;;;;0.17;100.00;103292.16;4956233;28;20090;-89
2024/01/12 08:00:08;;;;;;;16.23;7.13;;;;;;;0.19;100.00;103295.66;4937717;28;20519;-88
2024/01/12 08:02:33;;;;;;;16.97;7.60;;;;;;;0.20;100.00;103293.22;4952208;28;20038;-87
2024/01/12 08:04:58;;;;;;;15.77;6.70;;;;;;;0.22;100.00;103290.72;4951717;28;20463;-88
2024/01/12 08:07:24;;;;;;;14.27;6.47;;;;;;;0.23;100.00;103295.03;4937027;29;20024;-88
2024/01/12 08:09:49;;;;;;;15.73;6.77;;;;;;;0.21;100.00;103291.50;4951937;29;20034;-87
2024/01/12 08:12:14;;;;;;;16.60;7.23;;;;;;;0.20;100.00;103289.75;4952377;28;20024;-89
2024/01/12 08:14:40;;;;;;;14.73;7.00;;;;;;;0.22;100.00;103293.28;4952289;28;20366;-89
2024/01/12 08:17:05;;;;;;;15.40;6.57;;;;;;;0.25;100.00;103296.03;4964466;28;20023;-89
2024/01/12 08:19:30;;;;;;;14.13;6.63;;;;;;;0.27;100.00;103302.97;4953471;28;20090;-89
2024/01/12 08:21:56;;;;;;;15.70;6.40;;;;;;;0.30;100.00;103304.84;4954014;28;20401;-89
2024/01/12 08:24:21;;;;;;;17.43;7.00;;;;;;;0.33;100.00;103293.91;4937925;28;20763;-88
2024/01/12 08:26:46;;;;;;;15.07;6.60;;;;;;;0.34;100.00;103295.66;4953303;28;20023;-89
2024/01/12 08:29:12;;;;;;;19.83;7.33;;;;;;;0.35;100.00;103300.84;4951591;28;20031;-91
2024/01/12 08:31:38;;;;;;;15.37;7.07;;;;;;;0.38;100.00;103300.16;4937491;28;20035;-90
2024/01/12 08:34:03;;;;;;;15.57;7.30;;;;;;;0.41;100.00;103308.91;4952282;29;20484;-88
2024/01/12 08:36:28;;;;;;;16.63;7.00;;;;;;;0.44;100.00;103303.03;4952180;29;20439;-89
2024/01/12 08:38:54;;;;;;;16.27;7.00;;;;;;;0.47;100.00;103310.91;4966790;28;20581;-89
2024/01/12 08:41:19;;;;;;;16.40;7.37;;;;;;;0.49;100.00;103308.44;4953555;28;20031;-89
2024/01/12 08:43:48;;;;;;;16.10;6.57;;;;;;;0.50;100.00;103302.53;4953726;28;20041;-92
2024/01/12 08:46:13;;;;;;;16.37;7.13;;;;;;;0.53;100.00;103310.38;4966694;28;20425;-91
2024/01/12 08:48:40;;;;;;;20.93;9.47;;;;;;;0.54;100.00;103309.56;4937908;29;20037;-92
2024/01/12 08:51:05;;;;;;;18.13;8.80;;;;;;;0.55;100.00;103307.13;4936996;28;20039;-93
2024/01/12 08:53:30;;;;;;;19.27;8.60;;;;;;;0.54;100.00;103302.78;4952246;28;20252;-91
2024/01/12 08:55:56;;;;;;;20.57;9.77;;;;;;;0.56;100.00;103314.00;4953874;28;20432;-91
2024/01/12 08:58:21;;;;;;;18.80;8.67;;;;;;;0.59;100.00;103305.59;4953206;28;20304;-88
2024/01/12 09:00:49;;;;;;;22.93;8.93;;;;;;;0.61;100.00;103304.00;4954640;28;20023;-91
2024/01/12 09:03:14;;;;;;;20.17;8.77;;;;;;;0.62;100.00;103297.19;4968273;28;20477;-88
2024/01/12 09:05:40;;;;;;;17.20;7.67;;;;;;;0.66;100.00;103302.59;4969391;28;20023;-89
2024/01/12 09:08:05;;;;;;;18.00;7.70;;;;;;;0.70;100.00;103301.06;4953927;28;20165;-89
2024/01/12 09:10:30;;;;;;;17.23;8.17;;;;;;;0.73;100.00;103302.09;4955669;28;20085;-89
2024/01/12 09:12:56;;;;;;;16.57;7.53;;;;;;;0.78;100.00;103298.94;4937578;28;20093;-87
2024/01/12 09:15:21;;;;;;;18.43;7.80;;;;;;;0.80;100.00;103294.78;4955667;28;20570;-90
2024/01/12 09:17:46;;;;;;;18.57;7.73;;;;;;;0.83;100.00;103292.38;4967486;28;20023;-90
2024/01/12 09:20:12;;;;;;;15.53;7.20;;;;;;;0.86;100.00;103293.41;4972050;28;20025;-89
2024/01/12 09:22:37;;;;;;;15.87;7.20;;;;;;;0.90;100.00;103299.59;4954634;28;20504;-88
2024/01/12 09:25:03;;;;;;;16.53;6.80;;;;;;;0.94;100.00;103298.97;4963339;28;20030;-89
2024/01/12 09:27:28;;;;;;;12.53;6.30;;;;;;;0.95;100.00;103302.38;4956534;28;20535;-93
2024/01/12 09:29:54;;;;;;;14.87;6.77;;;;;;;0.97;100.00;103311.94;4958067;28;20018;-90
2024/01/12 09:32:19;;;;;;;15.93;6.40;;;;;;;1.00;100.00;103312.13;4938236;28;20118;-90
2024/01/12 09:34:45;;;;;;;15.70;6.30;;;;;;;1.00;100.00;103307.00;4959202;28;20054;-90
2024/01/12 09:37:10;;;;;;;13.43;6.27;;;;;;;1.02;100.00;103305.41;4955423;28;20526;-89
2024/01/12 09:39:35;;;;;;;18.57;6.83;;;;;;;1.04;100.00;103297.78;4936278;29;20051;-87
2024/01/12 09:42:04;;;;;;;15.03;6.03;;;;;;;1.05;100.00;103294.41;4951405;28;20034;-90
2024/01/12 09:44:36;;;;;;;13.57;6.70;;;;;;;1.08;100.00;103292.03;4952180;29;20030;-88
2024/01/12 09:47:01;;;;;;;13.60;5.80;;;;;;;1.13;100.00;103287.13;4935715;29;20214;-91
2024/01/12 09:49:29;;;;;;;15.23;6.03;;;;;;;1.17;100.00;103283.94;4935298;29;20037;-91
2024/01/12 09:51:56;;;;;;;16.93;6.53;;;;;;;1.20;100.00;103296.88;4935547;29;20094;-92
2024/01/12 09:54:21;;;;;;;15.60;6.37;;;;;;;1.23;100.00;103297.06;4935684;29;20041;-91
2024/01/12 09:56:47;;;;;;;15.67;6.03;;;;;;;1.27;100.00;103293.84;4951634;29;20035;-92
2024/01/12 09:59:15;;;;;;;14.27;6.87;;;;;;;1.30;100.00;103285.44;4936389;29;20524;-93
2024/01/12 10:01:43;;;;;;;18.10;7.00;;;;;;;1.33;100.00;103286.50;4952076;28;20548;-93
2024/01/12 10:04:09;;;;;;;16.47;6.93;;;;;;;1.38;100.00;103293.53;4952475;29;20053;-93
2024/01/12 10:06:35;;;;;;;14.40;6.50;;;;;;;1.39;100.00;103296.19;4936420;29;20347;-91
2024/01/12 10:09:02;;;;;;;15.90;6.77;;;;;;;1.40;100.00;103299.63;4935278;28;20031;-93
2024/01/12 10:11:27;;;;;;;15.50;7.17;;;;;;;1.41;100.00;103297.16;4953846;28;20070;-93
2024/01/12 10:13:52;;;;;;;17.63;6.90;;;;;;;1.40;100.00;103303.09;4953781;28;20062;-92
2024/01/12 10:16:18;;;;;;;16.97;7.10;;;;;;;1.40;100.00;103297.97;4937422;28;20039;-93
2024/01/12 10:18:43;;;;;;;15.40;7.37;;;;;;;1.43;100.00;103312.63;4953958;28;20058;-90
2024/01/12 10:21:09;;;;;;;15.10;6.77;;;;;;;1.44;100.00;103309.25;4936037;29;20039;-91
2024/01/12 10:23:35;;;;;;;15.30;6.73;;;;;;;1.46;100.00;103299.94;4951847;28;20204;-93
2024/01/12 10:26:04;;;;;;;16.93;6.70;;;;;;;1.50;100.00;103309.56;4958359;28;20035;-91
2024/01/12 10:28:52;;;;;;;16.37;6.93;;;;;;;1.54;100.00;103310.59;4952791;28;20058;-90
2024/01/12 10:31:18;;;;;;;16.70;6.97;;;;;;;1.53;100.00;103302.03;4934615;28;20031;-89
2024/01/12 10:33:46;;;;;;;18.90;7.03;;;;;;;1.55;100.00;103296.97;4936637;28;20034;-90
2024/01/12 10:36:23;;;;;;;16.40;6.80;;;;;;;1.59;100.00;103293.78;4954291;28;20493;-92
2024/01/12 10:38:51;;;;;;;16.50;6.93;;;;;;;1.61;100.00;103279.34;4954662;28;20020;-92
2024/01/12 10:41:21;;;;;;;15.70;7.03;;;;;;;1.63;99.94;103286.31;4928743;29;20054;-92
2024/01/12 10:43:51;;;;;;;13.90;6.57;;;;;;;1.64;100.00;103280.38;4939808;29;20027;-92
2024/01/12 10:46:24;;;;;;;15.27;6.60;;;;;;;1.65;100.00;103278.69;4936436;29;20052;-92
2024/01/12 10:49:13;;;;;;;15.10;7.07;;;;;;;1.71;100.00;103285.81;4934823;29;20080;-92
2024/01/12 10:51:43;;;;;;;15.17;6.73;;;;;;;1.74;100.00;103280.81;4939913;28;20039;-92
2024/01/12 10:54:12;;;;;;;16.47;6.97;;;;;;;1.76;99.82;103285.25;4945528;29;20036;-93
2024/01/12 10:56:39;;;;;;;15.87;6.77;;;;;;;1.79;100.00;103276.81;4923060;29;20408;-92
2024/01/12 10:59:05;;;;;;;15.37;7.07;;;;;;;1.81;99.90;103273.50;4947666;28;20023;-93
2024/01/12 11:01:34;;;;;;;16.40;7.37;;;;;;;1.86;100.00;103278.00;4936642;29;20031;-92
2024/01/12 11:03:59;;;;;;;15.77;7.00;;;;;;;1.88;99.92;103267.00;4940637;29;20369;-92
2024/01/12 11:06:27;;;;;;;17.50;7.33;;;;;;;1.89;99.58;103262.75;4939051;29;20031;-92